Time;durP1;ratioP1;P1;durP2;ratioP2;P2;SDS_P1;SDS_P2;PMS_P1;PMS_P2;Temp;Humidity;BMP_temperature;BMP_pressure;BME280_temperature;BME280_humidity;BME280_pressure;Samples;Min_cycle;Max_cycle;Signal;HPM_P1;HPM_P2
2022/05/06 00:02:26;;;;;;;1.73;1.60;;;24.20;54.80;;;;;;5072778;28;20491;-79
2022/05/06 00:04:54;;;;;;;1.90;1.40;;;24.20;54.90;;;;;;5073972;28;20809;-79
2022/05/06 00:07:21;;;;;;;1.87;1.77;;;24.20;54.80;;;;;;5076998;28;20464;-79
2022/05/06 00:09:48;;;;;;;1.67;1.50;;;24.20;54.80;;;;;;5076781;28;20444;-79
2022/05/06 00:12:18;;;;;;;1.70;1.50;;;24.20;54.80;;;;;;5076443;28;20440;-79
2022/05/06 00:14:45;;;;;;;1.63;1.53;;;24.20;54.80;;;;;;5076712;28;20487;-79
2022/05/06 00:17:13;;;;;;;1.67;1.57;;;24.20;54.80;;;;;;5076365;28;20446;-79
2022/05/06 00:19:41;;;;;;;1.80;1.70;;;24.10;54.70;;;;;;5076688;28;20440;-80
2022/05/06 00:22:10;;;;;;;1.57;1.40;;;24.20;54.80;;;;;;5076740;28;20477;-79
2022/05/06 00:24:36;;;;;;;1.53;1.43;;;24.20;54.80;;;;;;5076629;28;20448;-79
2022/05/06 00:27:03;;;;;;;1.60;1.50;;;24.20;54.80;;;;;;5076756;28;20848;-78
2022/05/06 00:29:30;;;;;;;1.80;1.70;;;24.20;54.80;;;;;;5076447;28;20437;-79
2022/05/06 00:31:57;;;;;;;1.87;1.77;;;24.20;54.80;;;;;;5076349;28;20448;-79
2022/05/06 00:34:24;;;;;;;1.53;1.40;;;24.20;54.80;;;;;;5076347;28;20935;-79
2022/05/06 00:36:51;;;;;;;1.73;1.63;;;24.20;54.80;;;;;;5076106;28;20912;-79
2022/05/06 00:39:20;;;;;;;1.73;1.63;;;24.20;54.80;;;;;;5076162;28;20429;-79
2022/05/06 00:41:47;;;;;;;1.83;1.73;;;24.10;54.80;;;;;;5076178;28;20571;-80
2022/05/06 00:44:13;;;;;;;2.80;1.73;;;24.20;54.90;;;;;;5076307;28;20447;-79
2022/05/06 00:46:41;;;;;;;1.73;1.63;;;24.20;54.80;;;;;;5076344;28;20437;-79
2022/05/06 00:49:10;;;;;;;1.50;1.40;;;24.10;54.80;;;;;;5076077;28;20536;-79
2022/05/06 00:51:38;;;;;;;1.57;1.47;;;24.10;54.80;;;;;;5075812;28;20942;-79
2022/05/06 00:54:06;;;;;;;1.73;1.63;;;24.10;54.80;;;;;;5075588;28;20441;-78
2022/05/06 00:56:34;;;;;;;1.70;1.60;;;24.10;54.80;;;;;;5075975;28;20980;-79
2022/05/06 00:59:01;;;;;;;2.53;1.90;;;24.10;54.70;;;;;;5075896;28;20440;-79
2022/05/06 01:01:29;;;;;;;1.90;1.80;;;24.10;54.70;;;;;;5075735;28;20834;-79
2022/05/06 01:03:56;;;;;;;1.93;1.83;;;24.10;54.70;;;;;;5075476;28;20499;-80
2022/05/06 01:06:23;;;;;;;2.50;2.10;;;24.10;55.40;;;;;;5075619;28;20440;-79
2022/05/06 01:08:50;;;;;;;1.70;1.60;;;24.10;54.70;;;;;;5075673;28;20463;-78
2022/05/06 01:11:18;;;;;;;2.73;2.07;;;24.10;54.80;;;;;;5075773;28;20448;-79
2022/05/06 01:13:47;;;;;;;1.90;1.80;;;24.10;54.70;;;;;;5075579;28;20479;-79
2022/05/06 01:16:14;;;;;;;1.63;1.53;;;24.10;54.70;;;;;;5074926;28;20445;-79
2022/05/06 01:18:42;;;;;;;2.53;2.00;;;24.10;54.70;;;;;;5075459;28;20444;-79
2022/05/06 01:21:12;;;;;;;2.10;1.90;;;24.10;54.70;;;;;;5075408;28;20439;-78
2022/05/06 01:23:40;;;;;;;1.90;1.80;;;24.10;54.70;;;;;;5075275;28;20447;-79
2022/05/06 01:26:07;;;;;;;2.20;2.00;;;24.10;54.80;;;;;;5075611;28;20455;-79
2022/05/06 01:28:35;;;;;;;1.73;1.63;;;24.10;54.70;;;;;;5075425;28;20433;-79
2022/05/06 01:31:03;;;;;;;1.83;1.73;;;24.10;54.70;;;;;;5075572;28;20809;-79
2022/05/06 01:33:31;;;;;;;2.73;1.70;;;24.10;54.70;;;;;;5075084;28;20445;-79
2022/05/06 01:36:01;;;;;;;1.70;1.60;;;24.10;54.70;;;;;;5075403;28;20440;-79
2022/05/06 01:38:33;;;;;;;1.70;1.60;;;24.10;54.70;;;;;;5074633;28;20543;-78
2022/05/06 01:41:04;;;;;;;1.73;1.63;;;24.10;54.70;;;;;;5075210;28;20471;-79
2022/05/06 01:43:38;;;;;;;2.40;2.20;;;24.10;54.70;;;;;;5075043;28;20831;-79
2022/05/06 01:46:06;;;;;;;1.87;1.77;;;24.10;54.70;;;;;;5075305;28;20923;-79
2022/05/06 01:48:35;;;;;;;1.53;1.43;;;24.00;54.60;;;;;;5075089;28;20514;-78
2022/05/06 01:51:03;;;;;;;2.03;1.93;;;24.10;54.70;;;;;;5074895;28;20445;-79
2022/05/06 01:53:30;;;;;;;1.40;1.30;;;24.10;54.70;;;;;;5074690;28;20958;-78
2022/05/06 01:55:57;;;;;;;1.70;1.60;;;24.10;54.70;;;;;;5074628;28;20936;-80
2022/05/06 01:58:25;;;;;;;2.00;1.90;;;24.10;54.60;;;;;;5074682;28;20441;-78
2022/05/06 02:00:52;;;;;;;1.90;1.80;;;24.00;54.50;;;;;;5074545;28;20441;-79
2022/05/06 02:06:03;;;;;;;1.90;1.80;;;24.10;54.60;;;;;;5074789;28;20478;-78
2022/05/06 02:08:30;;;;;;;2.20;2.03;;;24.00;54.60;;;;;;5074303;28;20461;-79
2022/05/06 02:10:56;;;;;;;2.13;1.93;;;24.00;54.60;;;;;;5074201;28;20443;-79
2022/05/06 02:13:24;;;;;;;1.70;1.60;;;24.10;54.60;;;;;;5074401;28;20448;-78
2022/05/06 02:15:51;;;;;;;1.80;1.70;;;24.00;54.60;;;;;;5074047;28;20440;-78
2022/05/06 02:18:18;;;;;;;1.97;1.80;;;24.10;54.60;;;;;;5074183;28;20440;-78
2022/05/06 02:20:45;;;;;;;1.77;1.67;;;24.00;54.50;;;;;;5074152;28;20455;-79
2022/05/06 02:23:12;;;;;;;1.57;1.47;;;24.00;54.50;;;;;;5073869;28;20472;-79
2022/05/06 02:25:39;;;;;;;1.93;1.60;;;24.00;54.50;;;;;;5074192;28;20437;-79
2022/05/06 02:28:07;;;;;;;2.00;1.90;;;24.00;54.50;;;;;;5073383;28;20433;-81
2022/05/06 02:33:23;;;;;;;1.73;1.63;;;24.00;54.50;;;;;;5074032;28;20436;-79
2022/05/06 02:35:51;;;;;;;1.60;1.50;;;24.00;54.60;;;;;;5073980;28;20516;-78
2022/05/06 02:38:18;;;;;;;1.90;1.80;;;24.00;54.50;;;;;;5073633;28;20825;-79
2022/05/06 02:40:45;;;;;;;2.17;1.80;;;24.00;54.50;;;;;;5073878;28;20511;-79
2022/05/06 02:43:11;;;;;;;2.20;2.10;;;24.00;54.50;;;;;;5073643;28;20476;-79
2022/05/06 02:45:40;;;;;;;1.67;1.57;;;24.00;54.50;;;;;;5073810;28;20448;-78
2022/05/06 02:48:08;;;;;;;1.67;1.57;;;24.00;54.50;;;;;;5073689;28;20445;-79
2022/05/06 02:50:35;;;;;;;2.00;1.80;;;24.00;54.50;;;;;;5073685;28;20441;-78
2022/05/06 02:53:02;;;;;;;1.90;1.67;;;24.00;54.50;;;;;;5073516;28;20441;-79
2022/05/06 02:55:29;;;;;;;1.97;1.87;;;24.00;54.40;;;;;;5073547;28;20446;-78
2022/05/06 02:57:56;;;;;;;2.00;1.87;;;24.00;54.40;;;;;;5073551;28;20440;-79
2022/05/06 03:00:23;;;;;;;1.67;1.57;;;24.00;54.40;;;;;;5073452;28;20507;-79
2022/05/06 03:02:52;;;;;;;2.27;1.53;;;24.00;54.40;;;;;;5073394;28;20481;-78
2022/05/06 03:05:18;;;;;;;1.40;1.30;;;24.00;54.40;;;;;;5073439;28;20939;-78
2022/05/06 03:07:46;;;;;;;1.60;1.50;;;24.00;54.40;;;;;;5073346;28;20452;-79
2022/05/06 03:10:13;;;;;;;1.70;1.60;;;24.00;54.40;;;;;;5073242;28;20435;-79
2022/05/06 03:12:42;;;;;;;1.70;1.60;;;24.10;54.50;;;;;;5073606;28;20437;-79
2022/05/06 03:15:10;;;;;;;1.83;1.73;;;24.00;54.40;;;;;;5072824;28;20476;-79
2022/05/06 03:17:37;;;;;;;2.30;2.20;;;24.00;54.40;;;;;;5073351;28;20433;-79
2022/05/06 03:20:08;;;;;;;2.47;2.00;;;24.00;54.40;;;;;;5073226;28;20437;-78
2022/05/06 03:22:40;;;;;;;1.80;1.70;;;24.00;54.40;;;;;;5072965;28;20472;-78
2022/05/06 03:25:07;;;;;;;1.80;1.70;;;24.00;54.40;;;;;;5073120;28;20436;-78
2022/05/06 03:30:19;;;;;;;2.23;2.03;;;24.00;54.40;;;;;;5073368;28;20997;-78
2022/05/06 03:32:46;;;;;;;1.90;1.70;;;24.00;54.40;;;;;;5072394;28;20451;-79
2022/05/06 03:35:14;;;;;;;1.60;1.50;;;24.00;54.40;;;;;;5073186;28;20516;-78
2022/05/06 03:37:41;;;;;;;1.90;1.80;;;24.00;54.40;;;;;;5072864;28;20461;-78
2022/05/06 03:40:08;;;;;;;1.77;1.60;;;24.00;54.40;;;;;;5072809;28;20468;-78
2022/05/06 03:42:35;;;;;;;1.50;1.40;;;24.00;54.40;;;;;;5073158;28;20484;-79
2022/05/06 03:45:03;;;;;;;2.10;2.00;;;23.90;54.30;;;;;;5072967;28;20483;-80
2022/05/06 03:47:30;;;;;;;1.80;1.70;;;24.00;54.40;;;;;;5073108;28;20523;-78
2022/05/06 03:52:38;;;;;;;2.30;2.10;;;24.00;54.30;;;;;;5072031;28;20424;-78
2022/05/06 03:55:06;;;;;;;2.07;1.97;;;23.90;54.30;;;;;;5073048;28;20448;-79
2022/05/06 03:57:33;;;;;;;1.70;1.60;;;24.00;54.30;;;;;;5072836;28;20444;-78
2022/05/06 04:00:00;;;;;;;1.60;1.50;;;24.00;54.30;;;;;;5073046;28;20801;-79
2022/05/06 04:02:26;;;;;;;1.87;1.63;;;24.00;54.30;;;;;;5072939;28;20480;-78
2022/05/06 04:04:53;;;;;;;2.07;1.97;;;24.00;54.30;;;;;;5073046;28;20448;-78
2022/05/06 04:07:20;;;;;;;1.90;1.80;;;24.00;54.30;;;;;;5072883;28;20825;-78
2022/05/06 04:09:48;;;;;;;1.83;1.73;;;23.90;54.20;;;;;;5072906;28;20433;-79
2022/05/06 04:12:15;;;;;;;1.73;1.63;;;24.00;54.30;;;;;;5072922;28;20780;-77
2022/05/06 04:14:42;;;;;;;1.60;1.50;;;24.00;54.30;;;;;;5072618;28;20987;-78
2022/05/06 04:17:09;;;;;;;1.60;1.50;;;24.00;54.30;;;;;;5072909;28;20455;-78
2022/05/06 04:19:35;;;;;;;1.87;1.77;;;24.00;54.20;;;;;;5072887;28;20432;-79
2022/05/06 04:24:50;;;;;;;1.93;1.80;;;24.00;54.20;;;;;;5072830;28;20475;-78
2022/05/06 04:27:17;;;;;;;2.40;2.20;;;23.90;54.10;;;;;;5072631;28;20441;-79
2022/05/06 04:29:44;;;;;;;2.30;1.77;;;23.90;54.20;;;;;;5072778;28;20799;-78
2022/05/06 04:32:10;;;;;;;2.30;1.87;;;23.90;54.20;;;;;;5072542;28;20519;-78
2022/05/06 04:34:37;;;;;;;2.30;2.20;;;24.00;54.20;;;;;;5072601;28;20455;-79
2022/05/06 04:37:05;;;;;;;1.73;1.63;;;24.00;54.20;;;;;;5072473;28;20468;-78
2022/05/06 04:39:32;;;;;;;1.77;1.67;;;24.00;54.20;;;;;;5072497;28;20498;-77
2022/05/06 04:42:00;;;;;;;1.97;1.87;;;23.90;54.10;;;;;;5072459;28;20445;-79
2022/05/06 04:44:27;;;;;;;2.50;2.30;;;24.00;54.20;;;;;;5072469;28;20464;-78
2022/05/06 04:46:53;;;;;;;3.17;2.77;;;23.90;54.10;;;;;;5072206;28;20437;-77
2022/05/06 04:49:20;;;;;;;2.43;2.20;;;24.00;54.20;;;;;;5072078;28;20460;-79
2022/05/06 04:51:47;;;;;;;1.90;1.80;;;23.90;54.10;;;;;;5073133;28;20451;-78
2022/05/06 04:54:14;;;;;;;2.20;2.10;;;23.90;54.10;;;;;;5075892;28;20436;-78
2022/05/06 04:56:40;;;;;;;2.53;2.33;;;23.90;54.10;;;;;;5076092;28;20460;-78
2022/05/06 04:59:08;;;;;;;2.03;1.80;;;24.00;54.20;;;;;;5075935;28;20476;-79
2022/05/06 05:01:35;;;;;;;1.90;1.70;;;24.00;54.20;;;;;;5075859;28;20444;-78
2022/05/06 05:04:02;;;;;;;1.53;1.43;;;24.00;54.20;;;;;;5075533;28;20813;-78
2022/05/06 05:06:30;;;;;;;1.93;1.83;;;23.90;54.10;;;;;;5075781;28;20437;-78
2022/05/06 05:08:56;;;;;;;1.97;1.87;;;23.90;54.10;;;;;;5075828;28;20935;-79
2022/05/06 05:11:23;;;;;;;1.97;1.87;;;24.00;54.10;;;;;;5075786;28;20441;-79
2022/05/06 05:13:50;;;;;;;2.00;1.90;;;24.00;54.20;;;;;;5075681;28;20472;-79
2022/05/06 05:16:18;;;;;;;1.63;1.53;;;24.00;54.10;;;;;;5075647;28;20429;-79
2022/05/06 05:18:45;;;;;;;2.13;2.00;;;23.90;54.10;;;;;;5075625;28;20441;-78
2022/05/06 05:21:12;;;;;;;1.80;1.70;;;23.90;54.10;;;;;;5075600;28;20790;-78
2022/05/06 05:23:39;;;;;;;2.10;2.00;;;23.90;54.10;;;;;;5074967;28;20480;-80
2022/05/06 05:26:06;;;;;;;2.40;2.20;;;23.90;54.10;;;;;;5075293;28;20571;-78
2022/05/06 05:28:33;;;;;;;1.93;1.83;;;24.00;54.20;;;;;;5075324;28;20915;-78
2022/05/06 05:31:00;;;;;;;2.00;1.90;;;23.90;54.10;;;;;;5075250;28;20436;-77
2022/05/06 05:33:28;;;;;;;2.00;1.90;;;23.90;54.10;;;;;;5075013;28;20437;-77
2022/05/06 05:35:55;;;;;;;2.20;2.00;;;23.90;54.10;;;;;;5075303;28;20448;-77
2022/05/06 05:38:21;;;;;;;1.90;1.80;;;23.90;54.20;;;;;;5075218;28;20836;-78
2022/05/06 05:40:48;;;;;;;1.80;1.70;;;23.90;54.20;;;;;;5075295;28;20437;-77
2022/05/06 05:48:41;;;;;;;2.00;1.90;;;23.80;54.30;;;;;;5074863;28;20432;-78
2022/05/06 05:51:08;;;;;;;1.70;1.60;;;23.80;54.30;;;;;;5074925;28;20441;-78
2022/05/06 05:53:35;;;;;;;2.00;1.90;;;23.80;54.40;;;;;;5074984;28;20825;-77
2022/05/06 05:56:02;;;;;;;3.20;2.30;;;23.80;54.50;;;;;;5063936;28;20430;-80
2022/05/06 05:58:28;;;;;;;1.90;1.80;;;23.90;54.50;;;;;;5064746;28;20437;-78
2022/05/06 06:00:55;;;;;;;2.13;2.00;;;23.90;54.60;;;;;;5074920;28;20432;-77
2022/05/06 06:03:22;;;;;;;2.47;1.90;;;23.90;54.70;;;;;;5074433;28;20472;-76
2022/05/06 06:05:50;;;;;;;1.97;1.80;;;23.90;54.70;;;;;;5074304;28;20440;-76
2022/05/06 06:08:17;;;;;;;1.93;1.80;;;23.90;54.70;;;;;;5074253;28;20473;-77
2022/05/06 06:10:44;;;;;;;2.20;2.10;;;23.90;54.70;;;;;;5074607;28;20445;-79
2022/05/06 06:13:11;;;;;;;2.00;1.90;;;23.90;54.80;;;;;;5074600;28;20467;-80
2022/05/06 06:15:37;;;;;;;3.93;2.13;;;23.90;54.80;;;;;;5073903;28;20465;-77
2022/05/06 06:18:04;;;;;;;2.40;2.20;;;23.90;54.80;;;;;;5074599;28;20452;-78
2022/05/06 06:20:31;;;;;;;1.97;1.87;;;23.90;54.90;;;;;;5074469;28;20776;-79
2022/05/06 06:22:59;;;;;;;2.67;2.13;;;23.90;54.90;;;;;;5074365;28;20484;-80
2022/05/06 06:25:26;;;;;;;1.90;1.70;;;23.90;55.00;;;;;;5074262;28;20441;-77
2022/05/06 06:27:53;;;;;;;2.27;2.07;;;23.90;55.00;;;;;;5074200;28;20795;-80
2022/05/06 06:30:20;;;;;;;2.43;2.23;;;23.90;55.00;;;;;;5074074;28;20447;-77
2022/05/06 06:32:46;;;;;;;2.40;2.20;;;24.00;55.10;;;;;;5074233;28;20445;-77
2022/05/06 06:35:13;;;;;;;2.60;2.40;;;24.00;55.10;;;;;;5074174;28;20783;-77
2022/05/06 06:37:40;;;;;;;2.40;2.10;;;24.00;55.10;;;;;;5073790;28;20461;-81
2022/05/06 06:40:09;;;;;;;1.90;1.80;;;24.00;55.80;;;;;;5073810;28;20441;-78
2022/05/06 06:42:37;;;;;;;2.90;2.00;;;24.00;55.20;;;;;;5073788;28;20439;-78
2022/05/06 06:45:04;;;;;;;4.93;2.43;;;24.00;55.20;;;;;;5074008;28;20440;-78
2022/05/06 06:47:30;;;;;;;3.70;2.80;;;24.00;55.40;;;;;;5053619;28;20453;-81
2022/05/06 06:49:59;;;;;;;2.70;2.50;;;24.00;55.30;;;;;;5054284;28;20453;-85
2022/05/06 06:52:25;;;;;;;3.10;2.80;;;24.00;55.10;;;;;;5054310;28;20441;-82
2022/05/06 06:54:52;;;;;;;6.27;2.40;;;24.00;55.10;;;;;;5060277;28;20440;-82
2022/05/06 06:57:20;;;;;;;3.07;2.87;;;23.90;55.00;;;;;;5073794;28;20955;-78
2022/05/06 06:59:47;;;;;;;4.93;2.90;;;23.90;55.00;;;;;;5073564;28;20452;-79
2022/05/06 07:02:13;;;;;;;4.10;2.10;;;24.00;55.00;;;;;;5073246;28;20441;-79
2022/05/06 07:04:40;;;;;;;3.93;2.20;;;24.00;55.00;;;;;;5073667;28;20521;-79
2022/05/06 07:12:39;;;;;;;2.83;2.30;;;24.00;55.10;;;;;;5037805;28;20522;-80
2022/05/06 07:15:07;;;;;;;7.17;2.47;;;24.10;55.00;;;;;;5071107;28;20551;-83
2022/05/06 07:17:33;;;;;;;2.90;2.13;;;24.00;54.90;;;;;;5072207;28;20451;-80
2022/05/06 07:20:00;;;;;;;3.50;2.80;;;24.10;55.10;;;;;;5072790;28;20447;-80
2022/05/06 07:22:27;;;;;;;2.13;2.03;;;24.00;55.00;;;;;;5073275;28;20464;-79
2022/05/06 07:24:53;;;;;;;2.70;2.50;;;24.20;55.00;;;;;;5073089;28;20489;-81
2022/05/06 07:27:21;;;;;;;4.43;4.00;;;24.10;54.80;;;;;;5072958;28;20446;-79
2022/05/06 07:29:49;;;;;;;3.80;3.50;;;24.00;54.90;;;;;;5073290;28;20514;-81
2022/05/06 07:32:16;;;;;;;5.10;4.30;;;24.00;54.70;;;;;;5073459;28;20445;-82
2022/05/06 07:34:42;;;;;;;11.63;4.63;;;24.10;54.80;;;;;;5072907;28;20463;-81
2022/05/06 07:37:09;;;;;;;6.27;4.17;;;24.00;54.60;;;;;;5073113;28;20460;-84
2022/05/06 07:39:36;;;;;;;11.53;4.73;;;24.00;54.50;;;;;;5073024;28;20441;-81
2022/05/06 07:42:03;;;;;;;8.03;3.93;;;23.90;54.20;;;;;;5072915;28;20440;-80
2022/05/06 07:44:29;;;;;;;7.77;4.47;;;24.00;54.30;;;;;;5072363;28;20488;-81
2022/05/06 07:46:57;;;;;;;5.70;4.70;;;24.00;54.20;;;;;;5072965;28;20920;-84
2022/05/06 07:49:25;;;;;;;10.13;4.10;;;24.10;54.40;;;;;;5073055;28;20445;-80
2022/05/06 07:51:51;;;;;;;5.03;4.10;;;24.10;54.40;;;;;;5072592;28;20433;-79
2022/05/06 07:54:18;;;;;;;5.23;4.17;;;24.20;54.50;;;;;;5071881;28;20834;-79
2022/05/06 07:56:45;;;;;;;5.53;3.47;;;24.10;54.30;;;;;;5071528;28;20889;-79
2022/05/06 07:59:12;;;;;;;5.40;3.73;;;24.10;54.20;;;;;;5071556;28;20803;-79
2022/05/06 08:04:34;;;;;;;5.37;3.60;;;24.10;54.10;;;;;;5050750;28;20586;-79
2022/05/06 08:07:01;;;;;;;6.30;3.63;;;24.10;54.10;;;;;;5050831;28;20468;-79
2022/05/06 08:09:27;;;;;;;4.73;3.10;;;24.10;54.20;;;;;;5050832;28;20445;-79
2022/05/06 08:11:54;;;;;;;7.77;3.53;;;24.10;54.20;;;;;;5051134;28;20452;-79
2022/05/06 08:14:21;;;;;;;4.00;3.10;;;24.20;54.20;;;;;;5069361;28;20481;-79
2022/05/06 08:16:49;;;;;;;5.20;3.40;;;24.20;54.20;;;;;;5071411;28;20919;-80
2022/05/06 08:19:16;;;;;;;3.70;2.97;;;24.20;54.30;;;;;;5071301;28;20948;-79
2022/05/06 08:21:44;;;;;;;3.87;2.70;;;24.20;54.20;;;;;;5071315;28;20437;-78
2022/05/06 08:24:11;;;;;;;4.60;3.50;;;24.20;54.30;;;;;;5071358;28;20488;-79
2022/05/06 08:26:38;;;;;;;3.10;2.17;;;24.30;54.30;;;;;;5072458;28;20503;-78
2022/05/06 08:29:05;;;;;;;4.00;2.67;;;24.30;54.40;;;;;;5076374;28;20441;-78
2022/05/06 08:31:37;;;;;;;2.50;2.23;;;24.30;54.40;;;;;;5076340;28;20444;-78
2022/05/06 08:34:05;;;;;;;4.67;2.80;;;24.30;54.30;;;;;;5076257;28;20444;-79
2022/05/06 08:36:31;;;;;;;2.70;2.27;;;24.30;54.30;;;;;;5076239;28;20440;-78
2022/05/06 08:38:59;;;;;;;2.83;2.50;;;24.30;54.30;;;;;;5075846;28;20444;-78
2022/05/06 08:41:27;;;;;;;2.70;2.27;;;24.40;54.40;;;;;;5075917;28;20791;-78
2022/05/06 08:43:54;;;;;;;2.57;2.23;;;24.40;54.40;;;;;;5075972;28;20831;-78
2022/05/06 08:51:54;;;;;;;2.63;2.00;;;24.40;54.40;;;;;;5075513;28;20447;-78
2022/05/06 08:54:23;;;;;;;3.20;2.50;;;24.50;54.50;;;;;;5075726;28;20445;-78
2022/05/06 08:56:50;;;;;;;3.47;2.60;;;24.50;54.50;;;;;;5075959;28;20444;-78
2022/05/06 08:59:16;;;;;;;3.77;2.27;;;24.50;54.50;;;;;;5075813;28;20468;-78
2022/05/06 09:01:43;;;;;;;2.10;1.90;;;24.50;54.40;;;;;;5075839;28;20437;-78
2022/05/06 09:04:10;;;;;;;6.20;2.57;;;24.50;54.50;;;;;;5074916;28;20480;-84
2022/05/06 09:06:37;;;;;;;2.53;2.23;;;24.50;54.20;;;;;;5075418;28;20441;-83
2022/05/06 09:09:04;;;;;;;2.60;2.40;;;24.50;54.10;;;;;;5072196;28;20792;-80
2022/05/06 09:14:20;;;;;;;4.00;2.30;;;24.50;54.20;;;;;;5075758;28;20471;-82
2022/05/06 09:16:47;;;;;;;3.37;2.57;;;24.60;54.40;;;;;;5073535;28;20930;-81
2022/05/06 09:19:17;;;;;;;1.83;1.73;;;24.60;54.40;;;;;;5076583;28;20528;-81
2022/05/06 09:22:08;;;;;;;2.30;2.17;;;24.70;54.50;;;;;;5076112;28;20776;-81
2022/05/06 09:24:37;;;;;;;2.70;2.20;;;24.70;54.40;;;;;;5076490;28;20538;-81
2022/05/06 09:27:07;;;;;;;4.17;2.20;;;24.70;54.50;;;;;;5076622;28;20440;-81
2022/05/06 09:29:36;;;;;;;2.60;2.40;;;24.70;54.50;;;;;;5076214;28;20486;-81
2022/05/06 09:32:21;;;;;;;4.90;2.57;;;24.80;54.60;;;;;;5075643;28;20839;-81
2022/05/06 09:34:49;;;;;;;2.83;2.50;;;24.90;54.60;;;;;;5075297;28;20436;-81
2022/05/06 09:37:36;;;;;;;2.40;2.20;;;24.80;54.60;;;;;;5075481;28;20460;-81
2022/05/06 09:40:08;;;;;;;3.47;2.20;;;24.80;54.60;;;;;;5076234;28;20441;-81
2022/05/06 09:42:38;;;;;;;3.60;2.00;;;24.90;54.80;;;;;;5075330;28;20437;-81
2022/05/06 09:45:06;;;;;;;2.60;2.40;;;24.80;54.60;;;;;;5075124;28;20483;-82
2022/05/06 09:47:33;;;;;;;3.20;2.90;;;24.90;54.70;;;;;;5070126;28;20489;-82
2022/05/06 09:50:00;;;;;;;3.60;2.70;;;25.00;54.70;;;;;;5073890;28;20881;-82
2022/05/06 09:52:27;;;;;;;6.80;2.90;;;24.90;54.60;;;;;;5075209;28;20524;-82
2022/05/06 09:54:55;;;;;;;2.80;2.60;;;24.90;54.60;;;;;;5075135;28;20445;-82
2022/05/06 09:57:22;;;;;;;3.63;3.33;;;24.90;54.50;;;;;;5074821;28;20445;-82
2022/05/06 09:59:51;;;;;;;3.07;2.40;;;24.90;54.50;;;;;;5074500;28;20456;-82
2022/05/06 10:02:18;;;;;;;4.73;3.20;;;25.00;54.60;;;;;;5075010;28;20510;-82
2022/05/06 10:04:47;;;;;;;3.33;2.50;;;24.80;54.50;;;;;;5074497;28;20485;-82
2022/05/06 10:07:16;;;;;;;4.60;3.53;;;24.80;54.40;;;;;;5074533;28;20461;-82
2022/05/06 10:09:52;;;;;;;3.17;2.97;;;24.80;54.40;;;;;;5074318;28;20445;-82
2022/05/06 10:12:21;;;;;;;2.50;2.30;;;25.00;54.60;;;;;;5075109;28;20527;-82
2022/05/06 10:14:48;;;;;;;3.00;2.63;;;24.80;54.50;;;;;;5074580;28;20480;-82
2022/05/06 10:17:48;;;;;;;3.80;3.17;;;25.00;54.60;;;;;;5074570;28;20444;-82
2022/05/06 10:20:48;;;;;;;3.83;3.53;;;24.80;54.40;;;;;;5074653;28;20463;-82
2022/05/06 10:23:18;;;;;;;3.40;3.10;;;24.80;54.50;;;;;;5069443;28;20780;-81
2022/05/06 10:25:54;;;;;;;3.60;3.30;;;24.80;54.50;;;;;;5074388;28;20485;-82
2022/05/06 10:34:29;;;;;;;4.80;3.53;;;24.70;54.50;;;;;;5074621;28;20474;-83
2022/05/06 10:37:00;;;;;;;4.07;3.77;;;24.60;54.60;;;;;;5074283;28;20469;-83
2022/05/06 10:39:28;;;;;;;3.83;3.47;;;24.60;54.70;;;;;;5074449;28;20448;-83
2022/05/06 10:42:03;;;;;;;4.47;3.30;;;24.60;54.70;;;;;;5074125;28;20444;-83
2022/05/06 10:44:38;;;;;;;3.83;3.53;;;24.60;54.70;;;;;;5073579;28;20840;-84
2022/05/06 10:47:40;;;;;;;3.60;3.30;;;24.60;54.70;;;;;;5072506;28;20476;-83
2022/05/06 10:50:16;;;;;;;3.73;3.33;;;24.60;54.70;;;;;;5071110;28;20856;-83
2022/05/06 10:52:44;;;;;;;4.40;3.73;;;24.50;54.70;;;;;;5073227;28;20453;-83
2022/05/06 10:55:16;;;;;;;3.73;3.43;;;24.50;54.70;;;;;;5073561;28;20496;-82
2022/05/06 10:57:55;;;;;;;4.30;3.90;;;24.60;54.80;;;;;;5073609;28;20444;-82
2022/05/06 11:00:23;;;;;;;3.90;3.60;;;24.70;55.00;;;;;;5073481;28;20445;-82
2022/05/06 11:02:50;;;;;;;6.03;3.70;;;24.60;55.00;;;;;;5073566;28;20472;-82
2022/05/06 11:05:21;;;;;;;3.13;2.93;;;24.70;55.10;;;;;;5073301;28;20942;-82
2022/05/06 11:07:49;;;;;;;3.87;3.57;;;24.70;55.00;;;;;;5073437;28;20465;-82
2022/05/06 11:10:18;;;;;;;3.30;3.10;;;24.80;55.00;;;;;;5073608;28;20946;-82
2022/05/06 11:12:47;;;;;;;3.73;3.43;;;24.80;55.00;;;;;;5073555;28;20445;-83
2022/05/06 11:15:15;;;;;;;6.37;3.03;;;24.90;55.00;;;;;;5039204;28;20469;-82
2022/05/06 11:17:43;;;;;;;3.53;3.07;;;25.00;55.00;;;;;;5053513;28;20441;-82
2022/05/06 11:20:21;;;;;;;5.30;3.10;;;25.00;55.40;;;;;;5053572;28;20453;-82
2022/05/06 11:23:06;;;;;;;3.57;3.27;;;25.10;54.80;;;;;;5045808;28;20448;-84
2022/05/06 11:25:35;;;;;;;4.30;3.80;;;25.20;54.70;;;;;;5051167;28;20477;-83
2022/05/06 11:28:04;;;;;;;3.40;3.20;;;25.00;54.50;;;;;;5043330;28;20434;-84
2022/05/06 11:30:32;;;;;;;4.30;3.00;;;25.10;54.60;;;;;;5033757;28;20805;-83
2022/05/06 11:33:01;;;;;;;3.90;3.33;;;25.10;54.60;;;;;;5033850;28;20866;-84
2022/05/06 11:35:33;;;;;;;3.57;3.03;;;25.00;54.60;;;;;;5038088;28;20469;-83
2022/05/06 11:38:00;;;;;;;3.43;3.23;;;25.00;54.50;;;;;;5052075;28;20446;-83
2022/05/06 11:40:36;;;;;;;2.57;2.37;;;25.10;54.50;;;;;;5053499;28;20438;-83
2022/05/06 11:43:08;;;;;;;2.50;2.30;;;25.00;54.50;;;;;;5052951;28;20433;-84
2022/05/06 11:48:24;;;;;;;2.80;2.50;;;24.90;54.50;;;;;;5052957;28;20852;-82
2022/05/06 11:50:57;;;;;;;3.80;2.93;;;24.90;54.50;;;;;;5053568;28;20442;-83
2022/05/06 11:53:28;;;;;;;8.13;3.80;;;24.80;54.40;;;;;;5053315;28;20448;-82
2022/05/06 11:55:56;;;;;;;3.57;2.67;;;24.80;54.20;;;;;;5054012;28;20855;-83
2022/05/06 11:58:26;;;;;;;3.70;2.90;;;24.80;54.20;;;;;;5053220;28;20437;-85
2022/05/06 12:00:54;;;;;;;3.30;3.07;;;24.80;54.30;;;;;;5053898;28;20448;-83
2022/05/06 12:03:21;;;;;;;4.90;3.13;;;24.80;54.40;;;;;;5055297;28;20438;-81
2022/05/06 12:06:09;;;;;;;3.00;2.80;;;24.70;54.30;;;;;;5055801;28;21007;-82
2022/05/06 12:08:37;;;;;;;4.13;2.73;;;24.80;54.40;;;;;;5056127;28;21015;-82
2022/05/06 12:11:07;;;;;;;2.60;2.40;;;24.80;54.60;;;;;;5056487;28;20442;-83
2022/05/06 12:13:36;;;;;;;2.97;2.77;;;24.80;54.70;;;;;;5059413;28;20920;-84
2022/05/06 12:16:07;;;;;;;5.43;3.20;;;24.70;54.70;;;;;;5077351;28;20445;-84
2022/05/06 12:18:34;;;;;;;4.40;4.00;;;24.70;54.70;;;;;;5077049;28;20509;-84
2022/05/06 12:21:16;;;;;;;4.63;3.30;;;24.60;54.80;;;;;;5076866;28;20444;-84
2022/05/06 12:23:50;;;;;;;3.30;3.10;;;24.60;54.60;;;;;;5076758;28;20452;-83
2022/05/06 12:26:27;;;;;;;5.30;4.80;;;24.60;54.70;;;;;;5076055;28;20488;-83
2022/05/06 12:28:54;;;;;;;4.33;3.80;;;24.60;54.50;;;;;;5056262;28;20437;-82
2022/05/06 12:31:26;;;;;;;5.80;4.20;;;24.50;54.60;;;;;;5056279;28;20452;-81
2022/05/06 12:34:01;;;;;;;4.97;4.00;;;24.50;54.60;;;;;;5056737;28;20441;-83
2022/05/06 12:36:28;;;;;;;3.80;3.50;;;24.50;54.30;;;;;;5056461;28;20815;-85
2022/05/06 12:38:56;;;;;;;6.00;4.07;;;24.50;54.30;;;;;;5056352;28;20452;-82
2022/05/06 12:41:24;;;;;;;4.80;4.20;;;24.50;54.40;;;;;;5073346;28;20448;-82
2022/05/06 12:43:52;;;;;;;5.77;4.50;;;24.50;54.30;;;;;;5075822;28;20857;-82
2022/05/06 12:46:27;;;;;;;8.47;5.03;;;24.50;54.20;;;;;;5075699;28;20496;-83
2022/05/06 12:51:39;;;;;;;5.77;4.30;;;24.40;54.10;;;;;;5075703;28;20436;-83
2022/05/06 12:54:07;;;;;;;4.97;4.20;;;24.40;54.00;;;;;;5075726;28;20863;-82
2022/05/06 12:56:34;;;;;;;5.40;3.90;;;24.40;54.20;;;;;;5075813;28;20437;-85
2022/05/06 12:59:01;;;;;;;5.27;4.27;;;24.40;54.20;;;;;;5075442;28;20523;-82
2022/05/06 13:01:28;;;;;;;6.93;4.40;;;24.50;54.30;;;;;;5075532;28;20962;-83
2022/05/06 13:03:55;;;;;;;3.80;3.50;;;24.50;54.40;;;;;;5076091;28;20441;-83
2022/05/06 13:06:22;;;;;;;4.40;3.83;;;24.50;54.50;;;;;;5075791;28;20499;-82
2022/05/06 13:08:49;;;;;;;4.00;3.70;;;24.50;54.60;;;;;;5076118;28;20506;-83
2022/05/06 13:11:17;;;;;;;4.00;3.60;;;24.50;54.50;;;;;;5076154;28;20437;-85
2022/05/06 13:13:44;;;;;;;4.40;3.23;;;24.50;54.50;;;;;;5074965;28;20472;-85
2022/05/06 13:16:11;;;;;;;4.50;4.10;;;24.50;54.60;;;;;;5077743;28;20441;-83
2022/05/06 13:18:38;;;;;;;4.10;3.70;;;24.50;54.60;;;;;;5076192;28;20433;-82
2022/05/06 13:21:05;;;;;;;8.00;3.60;;;24.50;54.60;;;;;;5075883;28;20437;-83
2022/05/06 13:23:31;;;;;;;9.67;3.40;;;24.50;54.60;;;;;;5075713;28;20927;-82
2022/05/06 13:25:58;;;;;;;5.00;4.53;;;24.50;54.50;;;;;;5075728;28;20528;-84
2022/05/06 13:28:26;;;;;;;8.33;3.63;;;24.50;54.40;;;;;;5057815;28;20433;-83
2022/05/06 13:30:53;;;;;;;7.20;5.80;;;24.60;54.30;;;;;;5075584;28;20790;-82
2022/05/06 13:33:20;;;;;;;4.10;3.80;;;24.50;54.40;;;;;;5075485;28;20508;-83
2022/05/06 13:35:47;;;;;;;5.33;4.20;;;24.50;54.60;;;;;;5075299;28;20579;-83
2022/05/06 13:38:14;;;;;;;3.67;3.37;;;24.50;54.50;;;;;;5075433;28;20448;-80
2022/05/06 13:40:40;;;;;;;3.73;3.40;;;24.50;54.30;;;;;;5075477;28;20441;-83